createdAt,value
2022-10-06T00:04:03.738Z,0.50
2022-10-06T00:09:25.398Z,0.30
2022-10-06T00:14:47.030Z,0.20
2022-10-06T00:20:10.200Z,0.38
2022-10-06T00:25:32.406Z,0.25
2022-10-06T00:30:56.485Z,0.35
2022-10-06T00:36:18.466Z,0.30
2022-10-06T00:41:40.132Z,0.20
2022-10-06T00:47:03.240Z,0.30
2022-10-06T00:52:28.896Z,0.38
2022-10-06T00:57:52.502Z,0.30
2022-10-06T01:03:37.302Z,0.20
2022-10-06T01:08:58.944Z,0.10
2022-10-06T01:14:22.874Z,0.30
2022-10-06T01:19:56.731Z,0.20
2022-10-06T01:25:19.286Z,0.20
2022-10-06T01:30:46.526Z,0.25
2022-10-06T01:36:08.389Z,0.20
2022-10-06T01:41:33.365Z,0.20
2022-10-06T01:46:55.035Z,0.15
2022-10-06T01:52:16.777Z,0.25
2022-10-06T01:57:42.391Z,0.22
2022-10-06T02:03:04.215Z,0.28
2022-10-06T02:08:26.208Z,0.30
2022-10-06T02:13:48.699Z,0.20
2022-10-06T02:19:10.510Z,0.20
2022-10-06T02:24:32.264Z,0.10
2022-10-06T02:29:53.981Z,0.20
2022-10-06T02:35:15.702Z,0.35
2022-10-06T02:40:37.324Z,0.32
2022-10-06T02:46:07.390Z,0.28
2022-10-06T02:51:30.146Z,0.30
2022-10-06T02:56:51.826Z,0.30
2022-10-06T03:02:13.563Z,0.20
2022-10-06T03:07:35.299Z,0.22
2022-10-06T03:12:57.027Z,0.20
2022-10-06T03:18:18.686Z,0.25
2022-10-06T03:23:40.422Z,0.35
2022-10-06T03:29:02.477Z,0.20
2022-10-06T03:34:24.240Z,0.20
2022-10-06T03:39:46.082Z,0.20
2022-10-06T03:45:08.493Z,0.40
2022-10-06T03:50:30.171Z,0.30
2022-10-06T03:56:11.423Z,0.32
2022-10-06T04:01:38.012Z,0.30
2022-10-06T04:06:59.740Z,0.30
2022-10-06T04:12:21.408Z,0.30
2022-10-06T04:17:43.211Z,0.30
2022-10-06T04:23:05.782Z,0.30
2022-10-06T04:28:28.106Z,0.28
2022-10-06T04:33:55.621Z,0.10
2022-10-06T04:39:17.235Z,0.25
2022-10-06T04:44:39.048Z,0.40
2022-10-06T04:50:00.819Z,0.30
2022-10-06T04:55:22.583Z,0.40
2022-10-06T05:00:44.444Z,0.25
2022-10-06T05:06:17.828Z,0.43
2022-10-06T05:11:39.756Z,0.50
2022-10-06T05:17:01.463Z,0.30
2022-10-06T05:22:23.175Z,0.50
2022-10-06T05:27:44.931Z,0.50
2022-10-06T05:33:07.512Z,0.68
2022-10-06T05:38:29.972Z,0.50
2022-10-06T05:43:53.139Z,0.40
2022-10-06T05:49:14.891Z,0.45
2022-10-06T05:54:36.600Z,0.50
2022-10-06T05:59:58.265Z,0.32
2022-10-06T06:05:19.932Z,0.40
2022-10-06T06:10:41.608Z,0.57
2022-10-06T06:16:06.172Z,0.43
2022-10-06T06:21:28.721Z,0.50
2022-10-06T06:26:50.527Z,0.40
2022-10-06T06:32:12.151Z,0.50
2022-10-06T06:37:33.817Z,0.63
2022-10-06T06:42:55.440Z,0.85
2022-10-06T06:48:17.104Z,0.65
2022-10-06T06:53:40.304Z,0.63
2022-10-06T06:59:09.147Z,0.60
2022-10-06T07:04:33.132Z,0.40
2022-10-06T07:09:54.839Z,0.50
2022-10-06T07:15:35.398Z,0.60
2022-10-06T07:21:16.004Z,0.73
2022-10-06T07:26:37.741Z,0.68
2022-10-06T07:31:59.429Z,0.50
2022-10-06T07:37:21.130Z,1.02
2022-10-06T07:42:49.359Z,0.63
2022-10-06T07:48:14.567Z,0.60
2022-10-06T07:53:37.541Z,0.82
2022-10-06T07:58:59.509Z,0.52
2022-10-06T08:04:21.193Z,0.60
2022-10-06T08:09:42.867Z,0.50
2022-10-06T08:15:11.483Z,0.68
2022-10-06T08:20:33.271Z,0.70
2022-10-06T08:25:56.460Z,0.70
2022-10-06T08:31:21.398Z,0.60
2022-10-06T08:36:57.002Z,0.55
2022-10-06T08:42:46.207Z,0.73
2022-10-06T08:48:16.670Z,0.82
2022-10-06T08:53:47.212Z,0.70
2022-10-06T08:59:12.498Z,0.80
2022-10-06T09:04:34.506Z,0.80
2022-10-06T09:10:33.689Z,0.65
2022-10-06T09:15:59.521Z,0.98
2022-10-06T09:21:35.114Z,0.70
2022-10-06T09:26:59.132Z,1.00
2022-10-06T09:32:23.190Z,0.52
2022-10-06T09:38:08.733Z,0.80
2022-10-06T09:43:31.572Z,0.87
2022-10-06T09:49:16.516Z,0.70
2022-10-06T09:54:38.960Z,0.70
2022-10-06T10:00:01.983Z,0.65
2022-10-06T10:05:25.167Z,0.70
2022-10-06T10:10:46.822Z,0.85
2022-10-06T10:16:10.910Z,0.65
2022-10-06T10:21:36.595Z,1.15
2022-10-06T10:27:24.079Z,0.90
2022-10-06T10:32:54.542Z,0.60
2022-10-06T10:38:20.105Z,0.60
2022-10-06T10:43:50.009Z,0.50
2022-10-06T10:49:27.882Z,0.85
2022-10-06T10:54:59.434Z,0.52
2022-10-06T11:00:25.457Z,0.60
2022-10-06T11:06:20.589Z,0.40
2022-10-06T11:11:54.341Z,0.40
2022-10-06T11:17:40.145Z,0.50
2022-10-06T11:23:28.830Z,0.50
2022-10-06T11:29:00.115Z,0.60
2022-10-06T11:34:21.753Z,0.60
2022-10-06T11:40:04.173Z,0.50
2022-10-06T11:46:00.184Z,0.40
2022-10-06T11:51:25.005Z,0.55
2022-10-06T11:56:46.726Z,0.50
2022-10-06T12:02:37.394Z,0.77
2022-10-06T12:07:59.449Z,0.50
2022-10-06T12:14:12.323Z,0.70
2022-10-06T12:24:55.226Z,0.40
2022-10-06T12:30:30.541Z,0.60
2022-10-06T12:36:02.118Z,0.80
2022-10-06T12:41:59.665Z,0.70
2022-10-06T12:47:34.874Z,0.75
2022-10-06T12:53:05.625Z,1.30
2022-10-06T12:58:32.518Z,0.90
2022-10-06T13:03:55.438Z,0.70
2022-10-06T13:09:17.088Z,0.88
2022-10-06T13:14:38.753Z,0.60
2022-10-06T13:20:01.466Z,0.73
2022-10-06T13:25:23.406Z,0.73
2022-10-06T13:30:50.562Z,1.20
2022-10-06T13:36:13.619Z,0.80
2022-10-06T13:41:41.676Z,1.00
2022-10-06T13:47:15.870Z,1.00
2022-10-06T13:52:47.012Z,0.80
2022-10-06T13:58:10.169Z,0.70
2022-10-06T14:09:24.043Z,0.57
2022-10-06T14:14:50.670Z,0.60
2022-10-06T14:20:46.176Z,0.80
2022-10-06T14:26:09.516Z,0.47
2022-10-06T14:31:33.462Z,0.43
2022-10-06T14:36:55.511Z,0.60
2022-10-06T14:42:17.535Z,0.40
2022-10-06T14:47:39.260Z,0.40
2022-10-06T14:53:01.451Z,0.50
2022-10-06T14:58:23.103Z,0.90
2022-10-06T15:03:51.574Z,0.80
2022-10-06T15:09:13.527Z,0.60
2022-10-06T15:14:40.047Z,0.40
2022-10-06T15:20:01.811Z,0.65
2022-10-06T15:25:41.849Z,0.45
2022-10-06T15:31:03.549Z,0.55
2022-10-06T15:36:25.482Z,0.90
2022-10-06T15:41:47.796Z,0.70
2022-10-06T15:47:10.185Z,0.90
2022-10-06T15:52:33.956Z,1.30
2022-10-06T15:57:55.901Z,1.15
2022-10-06T16:03:38.728Z,1.13
2022-10-06T16:09:02.669Z,3.42
2022-10-06T16:14:25.221Z,2.60
2022-10-06T16:19:47.329Z,2.90
2022-10-06T16:25:09.188Z,2.85
2022-10-06T16:30:30.962Z,2.67
2022-10-06T16:35:57.076Z,2.65
2022-10-06T16:41:19.558Z,2.53
2022-10-06T16:46:41.339Z,1.73
2022-10-06T16:52:03.003Z,1.67
2022-10-06T16:57:25.144Z,2.03
2022-10-06T17:02:46.893Z,4.93
2022-10-06T17:08:08.578Z,2.42
2022-10-06T17:13:30.351Z,2.30
2022-10-06T17:18:55.782Z,1.92
2022-10-06T17:29:40.232Z,1.70
2022-10-06T17:35:02.044Z,1.85
2022-10-06T17:40:23.722Z,1.25
2022-10-06T17:45:46.437Z,1.35
2022-10-06T17:51:08.983Z,1.67
2022-10-06T17:56:35.757Z,1.17
2022-10-06T18:01:59.906Z,1.20
2022-10-06T18:07:22.198Z,1.13
2022-10-06T18:12:44.200Z,1.27
2022-10-06T18:18:06.127Z,1.70
2022-10-06T18:23:28.273Z,1.33
2022-10-06T18:28:50.425Z,1.45
2022-10-06T18:39:54.435Z,1.25
2022-10-06T18:45:39.262Z,1.63
2022-10-06T18:51:01.985Z,4.53
2022-10-06T18:56:29.741Z,2.13
2022-10-06T19:01:51.628Z,1.52
2022-10-06T19:07:13.337Z,1.40
2022-10-06T19:12:34.986Z,1.95
2022-10-06T19:17:56.631Z,1.10
2022-10-06T19:23:18.351Z,1.38
2022-10-06T19:28:40.411Z,1.40
2022-10-06T19:34:04.293Z,1.10
2022-10-06T19:39:28.468Z,1.25
2022-10-06T19:44:50.155Z,1.15
2022-10-06T19:50:12.981Z,1.95
2022-10-06T19:55:34.767Z,1.83
2022-10-06T20:00:56.404Z,1.50
2022-10-06T20:06:18.535Z,1.30
2022-10-06T20:11:43.805Z,1.85
2022-10-06T20:17:06.190Z,1.23
2022-10-06T20:22:28.241Z,1.60
2022-10-06T20:27:50.393Z,0.90
2022-10-06T20:33:12.026Z,1.10
2022-10-06T20:38:52.051Z,2.05
2022-10-06T20:44:13.844Z,1.25
2022-10-06T20:49:35.584Z,1.23
2022-10-06T20:54:57.302Z,1.27
2022-10-06T21:00:19.079Z,0.80
2022-10-06T21:05:48.465Z,1.02
2022-10-06T21:11:14.979Z,0.90
2022-10-06T21:16:37.681Z,1.00
2022-10-06T21:22:00.676Z,0.85
2022-10-06T21:27:22.285Z,1.00
2022-10-06T21:32:44.169Z,0.60
2022-10-06T21:38:07.377Z,0.77
2022-10-06T21:43:29.095Z,0.52
2022-10-06T21:48:55.881Z,0.43
2022-10-06T21:54:18.980Z,0.45
2022-10-06T21:59:40.597Z,0.57
2022-10-06T22:05:02.301Z,0.47
2022-10-06T22:10:23.993Z,0.47
2022-10-06T22:15:45.677Z,0.43
2022-10-06T22:21:27.423Z,0.73
2022-10-06T22:26:49.903Z,0.43
2022-10-06T22:32:11.530Z,0.38
2022-10-06T22:37:33.216Z,0.55
2022-10-06T22:42:54.836Z,0.60
2022-10-06T22:48:16.441Z,0.57
2022-10-06T22:53:38.111Z,0.40
2022-10-06T22:59:00.658Z,0.50
2022-10-06T23:04:22.414Z,0.40
2022-10-06T23:09:44.145Z,0.30
2022-10-06T23:15:06.300Z,0.40
2022-10-06T23:20:27.948Z,0.50
2022-10-06T23:25:49.571Z,0.30
2022-10-06T23:31:11.943Z,1.02
2022-10-06T23:36:33.684Z,0.32
2022-10-06T23:41:55.294Z,0.32
2022-10-06T23:47:17.004Z,0.50
2022-10-06T23:52:38.695Z,0.38
2022-10-06T23:58:00.398Z,0.30
